Time;durP1;ratioP1;P1;durP2;ratioP2;P2;SDS_P1;SDS_P2;PMS_P1;PMS_P2;Temp;Humidity;BMP_temperature;BMP_pressure;BME280_temperature;BME280_humidity;BME280_pressure;Samples;Min_cycle;Max_cycle;Signal;HPM_P1;HPM_P2
2021/08/29 00:00:53;;;;;;;11.90;7.20;;;;;;;13.82;82.55;96860.83;116216;1181;68280;-78
2021/08/29 00:03:26;;;;;;;14.10;7.20;;;;;;;13.79;83.28;96863.28;116200;1183;68283;-79
2021/08/29 00:05:55;;;;;;;12.50;7.40;;;;;;;13.79;83.14;96851.45;116229;1179;59868;-72
2021/08/29 00:08:25;;;;;;;10.90;7.40;;;;;;;13.75;83.35;96833.46;116228;1179;59895;-73
2021/08/29 00:10:55;;;;;;;13.10;8.20;;;;;;;13.72;83.55;96821.05;116236;1184;70518;-74
2021/08/29 00:13:27;;;;;;;13.60;8.80;;;;;;;13.72;84.01;96819.60;116135;1182;68413;-78
2021/08/29 00:15:56;;;;;;;11.60;6.90;;;;;;;13.71;84.66;96820.23;116184;1179;69416;-75
2021/08/29 00:18:27;;;;;;;11.70;7.40;;;;;;;13.69;84.36;96817.16;116223;1184;59546;-79
2021/08/29 00:20:56;;;;;;;11.50;7.10;;;;;;;13.69;84.22;96816.52;116202;1180;59545;-74
2021/08/29 00:23:27;;;;;;;11.70;7.80;;;;;;;13.69;84.68;96815.40;116171;1180;69545;-76
2021/08/29 00:25:57;;;;;;;13.40;8.00;;;;;;;13.69;85.47;96813.73;116175;1180;69169;-74
2021/08/29 00:28:26;;;;;;;18.20;8.40;;;;;;;13.69;85.70;96808.77;116234;1184;69214;-76
2021/08/29 00:30:55;;;;;;;13.60;8.80;;;;;;;13.65;85.27;96800.38;116052;1179;59520;-78
2021/08/29 00:33:24;;;;;;;16.20;8.90;;;;;;;13.50;85.91;96793.01;116229;1179;59506;-76
2021/08/29 00:35:56;;;;;;;14.00;9.00;;;;;;;13.44;85.68;96789.24;115975;1184;70427;-75
2021/08/29 00:38:25;;;;;;;16.10;8.80;;;;;;;13.38;85.94;96791.15;116109;1184;69039;-77
2021/08/29 00:40:55;;;;;;;15.90;9.00;;;;;;;13.36;86.53;96790.76;116221;1183;68412;-72
2021/08/29 00:43:24;;;;;;;17.20;8.90;;;;;;;13.34;86.73;96790.16;115994;1185;59522;-76
2021/08/29 00:45:54;;;;;;;12.40;8.70;;;;;;;13.31;86.59;96777.30;116230;1184;59615;-73
2021/08/29 00:48:24;;;;;;;13.00;8.60;;;;;;;13.32;86.59;96769.23;116230;1183;70533;-78
2021/08/29 00:50:54;;;;;;;11.20;8.10;;;;;;;13.34;87.38;96758.77;116262;1184;68356;-73
2021/08/29 00:53:24;;;;;;;11.50;8.60;;;;;;;13.37;87.78;96759.52;116248;1183;69326;-74
2021/08/29 00:55:57;;;;;;;;;;;;;;;13.38;87.64;96757.77;116034;1185;59556;-77
2021/08/29 00:58:28;;;;;;;12.60;8.00;;;;;;;13.38;86.71;96754.83;116120;1184;59537;-78
2021/08/29 01:00:58;;;;;;;13.20;8.70;;;;;;;13.37;86.59;96753.05;116207;1179;70370;-73
2021/08/29 01:03:35;;;;;;;18.30;9.30;;;;;;;13.37;86.83;96755.63;116062;1181;68650;-76
2021/08/29 01:06:24;;;;;;;14.60;9.50;;;;;;;13.36;86.37;96751.31;116234;1179;68876;-76
2021/08/29 01:09:24;;;;;;;14.40;10.30;;;;;;;13.34;86.36;96758.15;116152;1183;59505;-76
2021/08/29 01:11:55;;;;;;;18.80;9.80;;;;;;;13.33;86.72;96766.73;116231;1179;59539;-77
2021/08/29 01:14:48;;;;;;;14.60;9.90;;;;;;;13.27;87.58;96768.20;116193;1184;71177;-79
2021/08/29 01:17:23;;;;;;;16.80;11.50;;;;;;;13.24;87.19;96768.71;116201;1184;69166;-75
2021/08/29 01:20:19;;;;;;;14.50;10.70;;;;;;;13.22;87.23;96763.61;116198;1181;69146;-76
2021/08/29 01:22:51;;;;;;;15.70;11.20;;;;;;;13.19;87.36;96757.89;116119;1183;59584;-78
2021/08/29 01:25:33;;;;;;;16.30;9.90;;;;;;;13.18;87.34;96749.42;116242;1182;59539;-76
2021/08/29 01:28:13;;;;;;;16.70;9.20;;;;;;;13.20;87.79;96748.11;116231;1179;70815;-77
2021/08/29 01:30:47;;;;;;;13.70;9.70;;;;;;;13.22;87.51;96745.63;116202;1184;68294;-75
2021/08/29 01:33:19;;;;;;;14.40;10.80;;;;;;;13.26;87.73;96739.13;116270;1183;68478;-75
2021/08/29 01:35:59;;;;;;;12.00;9.70;;;;;;;13.28;87.39;96738.48;116259;1183;59539;-73
2021/08/29 01:38:30;;;;;;;17.50;10.10;;;;;;;13.31;86.99;96732.08;116243;1183;59543;-78
2021/08/29 01:40:59;;;;;;;19.90;10.40;;;;;;;13.34;87.33;96730.04;116241;1183;70531;-73
2021/08/29 01:43:29;;;;;;;15.10;10.80;;;;;;;13.34;87.48;96731.36;116088;1184;69136;-73
2021/08/29 01:46:00;;;;;;;12.60;9.80;;;;;;;13.34;86.77;96729.64;116107;1180;69443;-76
2021/08/29 01:48:30;;;;;;;11.90;10.00;;;;;;;13.33;86.92;96732.23;116069;1182;59621;-72
2021/08/29 01:51:08;;;;;;;15.80;10.20;;;;;;;13.33;86.50;96728.46;116045;1184;59585;-76
2021/08/29 01:53:43;;;;;;;14.70;10.30;;;;;;;13.33;86.34;96724.05;116249;1182;71370;-74
2021/08/29 01:56:22;;;;;;;14.50;9.90;;;;;;;13.34;86.49;96723.21;116266;1179;68246;-71
2021/08/29 01:58:57;;;;;;;14.10;10.30;;;;;;;13.34;86.33;96724.14;116112;1184;68471;-72
2021/08/29 02:01:33;;;;;;;15.80;10.10;;;;;;;13.35;86.24;96720.66;116212;1183;59526;-72
2021/08/29 02:04:05;;;;;;;17.20;10.20;;;;;;;13.36;86.13;96716.52;116239;1179;59601;-78
2021/08/29 02:06:46;;;;;;;13.30;9.50;;;;;;;13.37;86.31;96710.33;116223;1183;71367;-79
2021/08/29 02:09:19;;;;;;;16.40;11.10;;;;;;;13.39;87.58;96704.96;116246;1184;68372;-78
2021/08/29 02:11:55;;;;;;;13.60;9.70;;;;;;;13.40;86.79;96709.83;116208;1184;68420;-74
2021/08/29 02:14:43;;;;;;;17.40;10.70;;;;;;;13.42;86.77;96706.82;116111;1184;59574;-78
2021/08/29 02:17:13;;;;;;;;;;;;;;;13.43;86.85;96701.59;116308;1184;59523;-76
2021/08/29 02:19:44;;;;;;;11.60;9.40;;;;;;;13.44;86.50;96697.24;116274;1184;70364;-77
2021/08/29 02:22:14;;;;;;;19.10;9.90;;;;;;;13.44;86.82;96702.13;116143;1181;69178;-76
2021/08/29 02:24:47;;;;;;;13.10;10.10;;;;;;;13.46;86.61;96699.67;116259;1184;68871;-74
2021/08/29 02:27:17;;;;;;;16.20;10.30;;;;;;;13.48;86.29;96693.41;116158;1184;59562;-72
2021/08/29 02:29:47;;;;;;;12.50;9.40;;;;;;;13.49;87.26;96683.87;116125;1184;59515;-78
2021/08/29 02:32:19;;;;;;;12.90;10.20;;;;;;;13.48;87.25;96686.84;116161;1184;70823;-75
2021/08/29 02:34:49;;;;;;;14.10;10.30;;;;;;;13.49;87.50;96684.83;116308;1179;69638;-73
2021/08/29 02:37:25;;;;;;;14.60;9.50;;;;;;;13.49;87.72;96686.96;116091;1182;69219;-76
2021/08/29 02:40:01;;;;;;;13.80;9.60;;;;;;;13.49;87.26;96690.60;116287;1183;59538;-74
2021/08/29 02:42:32;;;;;;;12.90;9.40;;;;;;;13.49;87.33;96696.81;116145;1184;59536;-77
2021/08/29 02:45:09;;;;;;;12.60;9.60;;;;;;;13.48;87.92;96694.02;116157;1180;71400;-72
2021/08/29 02:47:41;;;;;;;13.20;9.70;;;;;;;13.48;87.16;96687.90;116110;1181;69196;-71
2021/08/29 02:50:11;;;;;;;13.70;9.30;;;;;;;13.49;87.11;96684.38;116197;1184;69200;-78
2021/08/29 02:52:46;;;;;;;14.10;9.20;;;;;;;13.49;87.46;96681.90;116243;1183;59541;-72
2021/08/29 02:55:18;;;;;;;13.70;9.30;;;;;;;13.50;88.23;96679.13;116282;1181;59525;-71
2021/08/29 02:57:55;;;;;;;12.80;9.80;;;;;;;13.51;87.76;96679.70;116182;1183;71357;-75
2021/08/29 03:00:44;;;;;;;14.70;9.50;;;;;;;13.52;87.67;96679.89;116214;1182;68474;-71
2021/08/29 03:03:24;;;;;;;13.40;9.20;;;;;;;13.54;87.50;96679.52;116147;1181;69216;-72
2021/08/29 03:05:54;;;;;;;11.20;9.30;;;;;;;13.55;87.34;96679.77;116219;1179;59545;-72
2021/08/29 03:08:25;;;;;;;16.30;10.40;;;;;;;13.55;87.25;96670.57;116207;1179;59561;-72
2021/08/29 03:10:55;;;;;;;16.90;12.40;;;;;;;13.56;87.27;96661.84;116156;1182;70521;-77
2021/08/29 03:13:27;;;;;;;15.40;11.70;;;;;;;13.56;86.82;96656.88;116249;1183;69129;-72
2021/08/29 03:16:03;;;;;;;13.90;11.00;;;;;;;13.54;86.94;96655.64;116228;1179;69152;-75
2021/08/29 03:18:54;;;;;;;15.00;11.00;;;;;;;13.53;87.26;96655.11;116229;1184;59501;-73
2021/08/29 03:21:34;;;;;;;17.00;11.40;;;;;;;13.53;86.83;96648.59;116263;1180;59548;-74
2021/08/29 03:24:04;;;;;;;;;;;;;;;13.54;87.22;96644.77;116150;1180;69609;-73
2021/08/29 03:26:34;;;;;;;15.40;10.50;;;;;;;13.54;87.76;96641.38;116169;1180;68422;-73
2021/08/29 03:29:23;;;;;;;14.90;9.50;;;;;;;13.55;87.99;96636.55;116208;1184;68501;-80
2021/08/29 03:31:53;;;;;;;15.80;9.40;;;;;;;13.58;87.93;96641.48;116161;1184;59553;-72
2021/08/29 03:34:24;;;;;;;14.60;9.80;;;;;;;13.56;87.62;96639.69;116295;1182;59557;-78
2021/08/29 03:36:55;;;;;;;11.90;9.10;;;;;;;13.47;88.31;96631.91;116284;1183;70591;-75
2021/08/29 03:39:30;;;;;;;15.70;9.90;;;;;;;13.47;87.90;96629.86;116216;1184;68651;-74
2021/08/29 03:42:02;;;;;;;14.90;9.90;;;;;;;13.47;87.88;96641.67;116292;1184;69028;-80
2021/08/29 03:44:32;;;;;;;11.80;9.20;;;;;;;13.48;87.48;96645.07;116260;1184;59556;-73
2021/08/29 03:47:02;;;;;;;14.90;9.40;;;;;;;13.49;87.30;96650.74;116148;1182;59540;-77
2021/08/29 03:49:40;;;;;;;22.40;11.50;;;;;;;13.49;88.09;96659.61;116292;1179;71162;-79
2021/08/29 03:52:13;;;;;;;15.20;10.70;;;;;;;13.43;88.22;96668.12;116311;1183;69193;-75
2021/08/29 03:55:04;;;;;;;15.30;11.10;;;;;;;13.37;88.28;96669.33;116179;1183;69132;-73
2021/08/29 03:57:36;;;;;;;17.70;11.20;;;;;;;13.37;88.11;96670.75;116148;1184;59555;-76
2021/08/29 04:00:06;;;;;;;13.20;10.20;;;;;;;13.36;88.63;96673.36;116244;1182;59558;-72
2021/08/29 04:02:43;;;;;;;15.10;11.00;;;;;;;13.38;88.44;96676.11;116164;1184;71304;-76
2021/08/29 04:05:27;;;;;;;17.70;11.20;;;;;;;13.43;88.25;96683.64;116286;1179;69222;-72
2021/08/29 04:08:00;;;;;;;13.80;10.60;;;;;;;13.46;88.24;96688.92;116191;1180;69209;-71
2021/08/29 04:10:31;;;;;;;17.70;10.60;;;;;;;13.51;87.80;96683.82;116161;1183;59595;-76
2021/08/29 04:13:00;;;;;;;;;;;;;;;13.54;87.93;96685.13;116218;1181;59630;-75
2021/08/29 04:15:50;;;;;;;17.30;10.50;;;;;;;13.53;88.44;96689.80;116243;1184;71345;-77
2021/08/29 04:18:20;;;;;;;;;;;;;;;13.53;88.48;96693.59;116152;1181;69221;-79
2021/08/29 04:20:51;;;;;;;17.60;8.90;;;;;;;13.52;88.27;96698.89;116190;1184;69112;-73
2021/08/29 04:23:20;;;;;;;14.60;10.20;;;;;;;13.53;88.62;96712.02;116248;1184;59560;-75
2021/08/29 04:25:50;;;;;;;12.90;10.10;;;;;;;13.54;88.44;96721.42;116129;1182;59546;-74
2021/08/29 04:28:20;;;;;;;13.50;9.70;;;;;;;13.55;88.33;96721.66;116267;1184;71423;-74
2021/08/29 04:30:52;;;;;;;14.10;10.40;;;;;;;13.59;87.84;96723.13;116255;1181;69180;-71
2021/08/29 04:33:25;;;;;;;15.80;10.70;;;;;;;13.62;87.70;96726.06;116203;1179;69315;-77
2021/08/29 04:36:17;;;;;;;15.00;10.20;;;;;;;13.65;87.52;96731.39;116013;1181;59619;-72
2021/08/29 04:38:47;;;;;;;16.20;9.40;;;;;;;13.66;87.24;96740.72;116296;1179;59577;-72
2021/08/29 04:41:18;;;;;;;;;;;;;;;13.66;86.95;96741.18;116256;1184;70828;-76
2021/08/29 04:43:48;;;;;;;14.80;8.90;;;;;;;13.64;86.86;96740.46;116312;1180;69162;-77
2021/08/29 04:46:18;;;;;;;12.70;9.40;;;;;;;13.63;86.77;96734.31;116307;1183;68772;-73
2021/08/29 04:48:48;;;;;;;11.10;8.80;;;;;;;13.60;86.30;96738.89;116295;1182;59523;-74
2021/08/29 04:51:17;;;;;;;14.00;8.70;;;;;;;13.57;86.00;96743.48;116292;1181;59502;-79
2021/08/29 04:53:46;;;;;;;10.80;8.60;;;;;;;13.53;85.88;96739.21;116143;1184;71498;-79
2021/08/29 04:56:15;;;;;;;13.90;8.30;;;;;;;13.47;85.85;96736.08;116266;1184;69378;-76
2021/08/29 04:58:44;;;;;;;17.10;8.50;;;;;;;13.41;86.06;96740.38;116302;1184;69282;-73
2021/08/29 05:01:14;;;;;;;11.40;9.00;;;;;;;13.37;86.28;96741.63;116284;1184;59585;-78
2021/08/29 05:03:44;;;;;;;11.70;8.50;;;;;;;13.32;86.56;96742.05;116227;1184;59520;-78
2021/08/29 05:06:14;;;;;;;13.10;9.00;;;;;;;13.29;86.60;96745.05;116155;1182;70336;-78
2021/08/29 05:08:43;;;;;;;10.80;8.40;;;;;;;13.27;86.66;96755.71;116199;1180;68389;-72
2021/08/29 05:11:12;;;;;;;10.70;8.40;;;;;;;13.26;86.63;96759.70;116035;1184;69569;-77
2021/08/29 05:13:41;;;;;;;16.00;8.80;;;;;;;13.26;86.74;96764.50;116131;1184;59536;-74
2021/08/29 05:16:10;;;;;;;13.50;9.30;;;;;;;13.25;86.82;96767.81;116039;1184;59539;-78
2021/08/29 05:18:42;;;;;;;11.10;8.00;;;;;;;13.23;86.92;96774.95;116247;1184;71445;-77
2021/08/29 05:21:19;;;;;;;13.90;9.00;;;;;;;13.23;86.87;96779.66;116161;1184;68318;-75
2021/08/29 05:24:06;;;;;;;12.50;8.50;;;;;;;13.22;86.99;96801.96;116203;1183;68840;-73
2021/08/29 05:26:50;;;;;;;8.70;6.30;;;;;;;13.20;87.06;96814.77;116314;1183;59534;-75
2021/08/29 05:29:20;;;;;;;14.40;7.40;;;;;;;13.18;87.00;96825.90;116295;1184;59463;-72
2021/08/29 05:31:49;;;;;;;10.00;7.80;;;;;;;13.16;87.08;96830.59;116221;1179;70576;-78
2021/08/29 05:34:24;;;;;;;9.70;6.80;;;;;;;13.15;86.92;96819.85;116297;1183;68261;-73
2021/08/29 05:36:54;;;;;;;9.30;6.20;;;;;;;13.14;87.11;96813.46;116289;1184;69285;-76
2021/08/29 05:39:23;;;;;;;9.20;5.70;;;;;;;13.14;87.06;96809.16;116276;1184;59631;-77
2021/08/29 05:41:52;;;;;;;8.90;6.10;;;;;;;13.14;87.15;96806.08;116177;1183;59660;-76
2021/08/29 05:44:34;;;;;;;9.90;6.30;;;;;;;13.14;87.37;96804.16;116353;1180;70500;-73
2021/08/29 05:47:04;;;;;;;13.60;6.90;;;;;;;13.14;87.46;96801.08;116262;1184;68366;-76
2021/08/29 05:49:36;;;;;;;12.90;6.20;;;;;;;13.14;87.74;96799.16;116324;1184;69222;-79
2021/08/29 05:52:06;;;;;;;9.80;5.90;;;;;;;13.13;87.90;96793.64;116179;1181;59622;-74
2021/08/29 05:54:35;;;;;;;8.50;6.00;;;;;;;13.13;87.93;96787.77;116277;1184;59540;-71
2021/08/29 05:57:05;;;;;;;8.70;5.40;;;;;;;13.11;88.53;96776.52;116285;1184;71203;-77
2021/08/29 05:59:34;;;;;;;10.20;5.70;;;;;;;13.12;88.31;96774.91;116298;1179;69215;-75
2021/08/29 06:02:03;;;;;;;9.00;5.40;;;;;;;13.12;88.33;96782.53;116117;1184;69316;-74
2021/08/29 06:04:33;;;;;;;6.80;5.30;;;;;;;13.11;88.45;96784.53;116187;1182;59543;-79
2021/08/29 06:07:19;;;;;;;10.10;5.60;;;;;;;13.11;88.50;96783.89;116145;1182;59492;-76
2021/08/29 06:09:55;;;;;;;9.00;5.00;;;;;;;13.12;88.44;96783.61;116271;1184;71315;-78
2021/08/29 06:12:24;;;;;;;7.70;4.80;;;;;;;13.11;88.83;96777.23;116028;1181;68969;-72
2021/08/29 06:14:54;;;;;;;6.40;4.40;;;;;;;13.10;88.94;96781.88;116262;1181;69066;-73
2021/08/29 06:17:23;;;;;;;6.60;4.10;;;;;;;13.10;88.92;96787.28;116271;1184;59551;-74
2021/08/29 06:19:52;;;;;;;8.50;5.30;;;;;;;13.11;88.86;96806.23;116141;1184;59545;-76
2021/08/29 06:22:21;;;;;;;8.10;4.90;;;;;;;13.12;88.84;96806.64;116208;1184;69634;-76
2021/08/29 06:25:09;;;;;;;10.10;5.60;;;;;;;13.11;88.90;96804.34;116255;1179;67450;-70
2021/08/29 06:27:58;;;;;;;9.50;5.20;;;;;;;13.09;89.14;96790.40;116045;1184;68388;-72
2021/08/29 06:30:45;;;;;;;7.60;5.20;;;;;;;13.09;89.01;96773.26;116244;1181;59522;-74
2021/08/29 06:33:33;;;;;;;6.60;4.20;;;;;;;13.09;89.16;96756.77;116174;1179;59580;-75
2021/08/29 06:36:05;;;;;;;8.60;4.90;;;;;;;13.09;89.29;96752.48;116148;1184;71223;-80
2021/08/29 06:38:33;;;;;;;6.30;4.50;;;;;;;13.10;89.30;96750.29;116144;1184;69107;-72
2021/08/29 06:41:03;;;;;;;7.40;4.60;;;;;;;13.11;89.41;96750.87;116074;1185;69378;-82
2021/08/29 06:43:32;;;;;;;8.00;4.60;;;;;;;13.15;89.12;96752.23;116263;1179;59497;-75
2021/08/29 06:46:24;;;;;;;6.80;3.90;;;;;;;13.16;89.25;96761.75;116246;1181;59629;-72
2021/08/29 06:49:12;;;;;;;7.90;4.40;;;;;;;13.18;89.28;96772.73;116312;1179;70727;-72
2021/08/29 06:51:59;;;;;;;5.70;4.10;;;;;;;13.24;89.22;96783.60;116300;1179;68432;-73
2021/08/29 06:54:46;;;;;;;6.00;3.70;;;;;;;13.29;88.93;96785.72;116221;1182;69241;-74
2021/08/29 06:57:35;;;;;;;5.50;3.40;;;;;;;13.35;88.75;96787.28;116141;1180;59538;-78
2021/08/29 07:00:06;;;;;;;5.20;2.90;;;;;;;13.37;88.75;96795.11;116262;1184;59505;-75
2021/08/29 07:02:35;;;;;;;5.00;3.40;;;;;;;13.42;88.51;96799.27;116165;1184;71335;-80
2021/08/29 07:05:05;;;;;;;5.70;3.00;;;;;;;13.47;88.63;96799.48;116124;1181;68371;-75
2021/08/29 07:07:34;;;;;;;4.70;3.30;;;;;;;13.53;88.54;96804.05;116189;1184;69255;-71
2021/08/29 07:10:10;;;;;;;4.50;2.90;;;;;;;13.57;88.35;96814.29;116196;1180;59562;-73
2021/08/29 07:13:02;;;;;;;3.90;2.60;;;;;;;13.64;88.01;96818.91;116080;1183;59604;-77
2021/08/29 07:15:34;;;;;;;6.80;3.10;;;;;;;13.71;87.54;96826.75;116263;1184;71183;-77
2021/08/29 07:18:05;;;;;;;4.50;3.10;;;;;;;13.73;87.54;96824.11;116301;1183;69266;-71
2021/08/29 07:20:56;;;;;;;7.60;3.70;;;;;;;13.76;87.43;96823.30;116259;1184;68624;-72
2021/08/29 07:23:44;;;;;;;6.50;3.70;;;;;;;13.78;87.57;96821.05;116296;1184;59554;-74
2021/08/29 07:26:42;;;;;;;6.60;3.60;;;;;;;13.83;87.93;96822.88;116009;1185;59710;-72
2021/08/29 07:29:30;;;;;;;4.80;3.10;;;;;;;13.89;87.72;96820.39;116304;1180;71382;-74
2021/08/29 07:32:17;;;;;;;5.20;3.10;;;;;;;13.95;87.40;96818.01;116261;1179;69305;-77
2021/08/29 07:34:47;;;;;;;5.00;3.00;;;;;;;14.01;87.17;96814.88;116286;1183;69302;-79
2021/08/29 07:37:43;;;;;;;6.10;3.30;;;;;;;14.05;87.06;96807.94;116110;1184;59581;-71
2021/08/29 07:40:13;;;;;;;10.20;3.60;;;;;;;14.10;87.69;96800.98;116316;1183;59522;-74
2021/08/29 07:42:42;;;;;;;10.30;4.20;;;;;;;14.18;87.75;96805.36;116126;1181;71952;-76
2021/08/29 07:45:12;;;;;;;8.40;4.30;;;;;;;14.25;87.70;96806.25;116105;1184;68232;-76
2021/08/29 07:47:42;;;;;;;6.10;3.80;;;;;;;14.34;87.19;96796.22;116307;1183;69028;-77
2021/08/29 07:50:11;;;;;;;5.80;3.30;;;;;;;14.41;86.66;96794.42;116175;1180;59561;-75
2021/08/29 07:52:40;;;;;;;9.40;4.20;;;;;;;14.47;86.12;96786.79;116167;1181;59617;-75
2021/08/29 07:55:27;;;;;;;6.70;4.10;;;;;;;14.51;85.87;96778.25;116239;1183;70895;-79
2021/08/29 07:58:31;;;;;;;9.60;4.50;;;;;;;14.54;86.74;96772.71;116195;1184;67592;-73
2021/08/29 08:01:06;;;;;;;9.70;4.10;;;;;;;14.58;86.95;96769.55;116339;1179;68576;-74
2021/08/29 08:03:37;;;;;;;9.00;4.20;;;;;;;14.60;86.14;96764.48;116284;1183;59492;-72
2021/08/29 08:06:09;;;;;;;4.80;3.30;;;;;;;14.60;85.99;96754.39;116283;1183;59543;-72
2021/08/29 08:08:50;;;;;;;4.20;3.10;;;;;;;14.59;85.97;96742.42;116285;1182;70623;-71
2021/08/29 08:11:37;;;;;;;6.20;3.60;;;;;;;14.60;86.14;96748.41;116252;1184;68399;-73
2021/08/29 08:14:06;;;;;;;6.50;3.50;;;;;;;14.62;86.09;96750.41;116302;1183;67529;-75
2021/08/29 08:16:36;;;;;;;4.50;3.10;;;;;;;14.65;85.77;96744.31;116275;1183;59537;-77
2021/08/29 08:19:18;;;;;;;4.20;3.10;;;;;;;14.64;85.49;96739.41;116244;1182;59555;-73
2021/08/29 08:21:46;;;;;;;7.80;3.50;;;;;;;14.67;85.79;96735.39;116128;1184;71827;-73
2021/08/29 08:24:26;;;;;;;7.30;3.80;;;;;;;14.72;86.60;96734.81;116244;1184;68860;-75
2021/08/29 08:27:13;;;;;;;4.70;3.10;;;;;;;14.82;86.29;96737.48;116268;1184;68214;-77
2021/08/29 08:30:02;;;;;;;4.80;3.10;;;;;;;14.92;85.18;96745.09;116281;1183;59537;-77
2021/08/29 08:32:49;;;;;;;3.50;2.40;;;;;;;14.95;84.71;96750.73;116305;1183;59552;-72
2021/08/29 08:35:37;;;;;;;4.80;2.80;;;;;;;15.08;84.36;96761.61;116296;1179;71196;-75
2021/08/29 08:38:25;;;;;;;2.60;2.00;;;;;;;15.20;83.40;96768.09;116077;1184;68209;-78
2021/08/29 08:41:10;;;;;;;4.20;2.00;;;;;;;15.34;82.51;96772.20;116355;1183;68310;-79
2021/08/29 08:43:58;;;;;;;7.60;2.40;;;;;;;15.47;81.94;96778.38;116116;1184;59521;-74
2021/08/29 08:46:45;;;;;;;4.20;2.70;;;;;;;15.54;82.64;96777.25;116308;1182;59527;-72
2021/08/29 08:49:34;;;;;;;4.00;2.80;;;;;;;15.59;82.33;96778.80;116311;1183;71438;-74
2021/08/29 08:52:24;;;;;;;4.60;2.80;;;;;;;15.54;82.30;96777.88;116106;1184;69274;-73
2021/08/29 08:55:30;;;;;;;4.10;2.50;;;;;;;15.57;82.59;96767.75;115971;1187;69869;-78
2021/08/29 08:58:18;;;;;;;2.70;2.20;;;;;;;15.53;83.53;96770.64;116203;1184;59463;-75
2021/08/29 09:01:07;;;;;;;2.40;2.10;;;;;;;15.61;82.62;96771.05;116196;1179;59532;-73
2021/08/29 09:03:42;;;;;;;3.20;2.10;;;;;;;15.54;83.21;96771.58;116317;1183;71435;-80
2021/08/29 09:06:20;;;;;;;3.10;2.10;;;;;;;15.70;83.18;96765.84;116282;1183;69200;-72
2021/08/29 09:08:49;;;;;;;2.80;2.10;;;;;;;15.91;83.16;96766.23;116272;1183;68455;-74
2021/08/29 09:11:38;;;;;;;3.90;2.30;;;;;;;16.14;81.59;96772.38;116265;1181;59536;-79
2021/08/29 09:14:08;;;;;;;4.00;2.40;;;;;;;16.21;80.09;96772.91;116165;1184;59539;-75
2021/08/29 09:16:37;;;;;;;4.10;2.30;;;;;;;16.15;79.04;96774.42;115967;1185;70625;-72
2021/08/29 09:19:06;;;;;;;3.70;2.60;;;;;;;16.06;79.65;96777.49;116074;1179;68282;-76
2021/08/29 09:21:39;;;;;;;4.30;2.50;;;;;;;16.17;79.22;96776.63;116284;1183;68503;-78
2021/08/29 09:24:30;;;;;;;2.60;2.10;;;;;;;16.21;79.00;96775.66;116068;1184;59617;-74
2021/08/29 09:27:11;;;;;;;;;;;;;;;16.22;78.75;96786.13;116177;1184;59578;-75
2021/08/29 09:30:03;;;;;;;3.80;2.60;;;;;;;16.12;78.23;96784.61;116209;1183;71957;-76
2021/08/29 09:32:32;;;;;;;3.60;2.70;;;;;;;16.20;79.32;96790.98;116149;1182;69161;-77
2021/08/29 09:35:08;;;;;;;3.70;2.50;;;;;;;16.21;78.66;96790.95;116247;1185;69207;-74
2021/08/29 09:38:06;;;;;;;5.10;2.30;;;;;;;16.15;78.57;96791.48;115967;1181;59494;-77
2021/08/29 09:40:46;;;;;;;4.00;2.50;;;;;;;16.17;78.52;96792.48;116294;1183;59497;-77
2021/08/29 09:43:37;;;;;;;5.10;2.70;;;;;;;16.31;79.65;96797.59;116294;1179;71925;-73
2021/08/29 09:46:07;;;;;;;5.20;2.80;;;;;;;16.39;78.42;96797.06;116285;1183;69262;-74
2021/08/29 09:48:57;;;;;;;3.50;2.40;;;;;;;16.50;77.53;96787.18;116259;1185;69230;-74
2021/08/29 09:51:56;;;;;;;5.30;2.10;;;;;;;16.59;78.13;96781.58;116220;1183;59563;-77
2021/08/29 09:54:52;;;;;;;4.10;2.40;;;;;;;16.85;76.39;96777.57;116243;1182;59539;-73
2021/08/29 09:57:40;;;;;;;4.70;3.30;;;;;;;16.91;74.97;96781.33;116297;1183;71157;-75
2021/08/29 10:00:35;;;;;;;3.90;2.20;;;;;;;16.96;74.13;96785.41;116340;1179;69165;-78
2021/08/29 10:03:06;;;;;;;5.90;2.50;;;;;;;17.06;74.09;96778.77;116303;1185;69319;-76
2021/08/29 10:06:25;;;;;;;3.90;2.80;;;;;;;17.25;73.81;96775.82;116250;1180;59535;-73
2021/08/29 10:08:59;;;;;;;2.80;2.10;;;;;;;17.48;74.08;96780.25;116307;1184;59507;-73
2021/08/29 10:11:41;;;;;;;4.30;2.60;;;;;;;17.60;72.76;96782.00;116271;1184;70595;-80
2021/08/29 10:14:11;;;;;;;4.50;2.70;;;;;;;17.73;72.63;96779.81;116341;1183;69096;-77
2021/08/29 10:17:01;;;;;;;5.00;2.50;;;;;;;17.89;72.75;96777.06;116095;1184;69213;-76
2021/08/29 10:20:00;;;;;;;6.30;2.80;;;;;;;17.90;71.04;96779.31;115990;1184;59560;-79
2021/08/29 10:22:50;;;;;;;3.30;2.30;;;;;;;18.03;70.72;96777.92;116255;1185;59551;-74
2021/08/29 10:25:20;;;;;;;4.40;2.90;;;;;;;18.14;69.83;96775.60;116189;1185;71281;-76
2021/08/29 10:27:56;;;;;;;3.20;2.40;;;;;;;18.29;69.60;96774.19;116255;1184;69177;-76
2021/08/29 10:30:48;;;;;;;4.10;2.50;;;;;;;18.52;68.97;96776.45;116265;1183;68426;-76
2021/08/29 10:33:37;;;;;;;3.70;2.50;;;;;;;18.67;67.79;96776.31;116246;1184;59606;-75
2021/08/29 10:36:18;;;;;;;3.70;2.30;;;;;;;18.92;67.34;96781.86;116290;1182;59478;-76
2021/08/29 10:39:05;;;;;;;4.30;2.00;;;;;;;18.99;65.47;96781.85;116286;1184;70010;-74
2021/08/29 10:41:54;;;;;;;3.40;2.20;;;;;;;19.10;64.20;96785.56;116229;1185;68473;-74
2021/08/29 10:44:36;;;;;;;3.30;2.10;;;;;;;19.46;63.87;96777.80;116132;1179;67689;-77
2021/08/29 10:47:24;;;;;;;2.90;2.00;;;;;;;19.85;63.81;96772.04;116304;1185;59478;-76
2021/08/29 10:50:17;;;;;;;2.90;1.90;;;;;;;20.35;62.02;96771.90;116260;1180;59536;-80
2021/08/29 10:52:46;;;;;;;3.00;2.20;;;;;;;20.47;61.70;96772.13;116256;1184;71376;-76
2021/08/29 10:55:18;;;;;;;3.00;2.20;;;;;;;20.60;60.72;96771.48;116018;1185;67966;-77
2021/08/29 10:57:49;;;;;;;2.50;2.00;;;;;;;21.32;59.07;96771.51;116048;1185;68037;-75
2021/08/29 11:00:27;;;;;;;2.80;1.80;;;;;;;21.19;57.00;96769.09;116205;1185;59593;-75
2021/08/29 11:03:23;;;;;;;1.70;1.30;;;;;;;21.98;58.22;96759.35;116283;1182;59564;-81
2021/08/29 11:06:43;;;;;;;1.80;1.60;;;;;;;22.18;55.28;96758.33;116237;1185;71389;-77
2021/08/29 11:09:37;;;;;;;2.80;1.70;;;;;;;22.49;54.49;96760.14;116107;1182;69260;-76
2021/08/29 11:12:12;;;;;;;1.50;1.30;;;;;;;22.97;53.75;96761.33;116271;1179;69198;-81
2021/08/29 11:14:47;;;;;;;2.00;1.40;;;;;;;22.97;51.27;96757.20;116289;1185;59555;-74
2021/08/29 11:17:19;;;;;;;1.80;1.40;;;;;;;22.85;51.41;96754.45;116126;1182;59526;-84
2021/08/29 11:20:04;;;;;;;1.50;1.30;;;;;;;22.43;53.74;96759.17;116284;1185;71456;-75
2021/08/29 11:22:59;;;;;;;2.30;1.50;;;;;;;21.99;54.32;96762.52;116244;1183;69199;-74
2021/08/29 11:25:47;;;;;;;1.70;1.20;;;;;;;21.82;53.75;96757.56;116286;1184;68261;-76
2021/08/29 11:28:34;;;;;;;2.00;1.60;;;;;;;21.66;55.10;96758.27;116270;1179;59500;-77
2021/08/29 11:31:49;;;;;;;3.40;1.60;;;;;;;21.47;55.55;96756.52;116314;1180;59504;-74
2021/08/29 11:34:20;;;;;;;1.60;1.50;;;;;;;21.28;55.91;96763.36;116219;1184;70688;-76
2021/08/29 11:36:50;;;;;;;2.30;1.40;;;;;;;21.05;56.61;96759.55;116035;1185;68553;-75
2021/08/29 11:39:34;;;;;;;2.10;1.50;;;;;;;20.70;57.63;96763.30;116216;1180;69226;-76
2021/08/29 11:42:19;;;;;;;4.10;1.90;;;;;;;20.45;59.85;96763.00;116264;1184;59526;-74
2021/08/29 11:44:56;;;;;;;3.60;1.60;;;;;;;20.70;59.83;96758.90;116270;1183;59557;-74
2021/08/29 11:47:44;;;;;;;2.50;1.80;;;;;;;20.94;58.45;96753.73;116084;1182;71398;-73
2021/08/29 11:50:28;;;;;;;2.60;1.80;;;;;;;21.01;57.87;96754.58;116298;1183;68942;-74
2021/08/29 11:53:16;;;;;;;2.30;1.90;;;;;;;20.55;58.01;96752.34;116235;1185;68786;-73
2021/08/29 11:55:45;;;;;;;2.50;1.90;;;;;;;20.45;59.11;96744.49;116262;1182;59538;-76
2021/08/29 11:58:20;;;;;;;1.60;1.50;;;;;;;20.54;60.20;96745.55;116274;1179;59537;-78
2021/08/29 12:00:51;;;;;;;2.50;1.40;;;;;;;20.66;59.34;96742.23;116102;1182;70596;-75
2021/08/29 12:03:31;;;;;;;2.20;1.80;;;;;;;20.72;59.10;96741.14;116288;1179;69085;-83
2021/08/29 12:06:34;;;;;;;6.50;2.90;;;;;;;20.94;59.14;96738.95;116101;1182;68271;-83
2021/08/29 12:09:31;;;;;;;3.30;1.90;;;;;;;21.15;57.51;96740.58;116061;1185;59564;-74